sensor_id;sensor_type;location;lat;lon;timestamp;P1;durP1;ratioP1;P2;durP2;ratioP2
70071;SDS011;57434;42.794;23.302;2024-01-11T00:00:41;20.70;;;8.82;;
70071;SDS011;57434;42.794;23.302;2024-01-11T00:01:45;19.63;;;8.32;;
70071;SDS011;57434;42.794;23.302;2024-01-11T00:02:47;25.70;;;8.85;;
70071;SDS011;57434;42.794;23.302;2024-01-11T00:03:48;23.05;;;9.77;;
70071;SDS011;57434;42.794;23.302;2024-01-11T00:04:50;30.65;;;12.05;;
70071;SDS011;57434;42.794;23.302;2024-01-11T00:05:52;30.83;;;10.85;;
70071;SDS011;57434;42.794;23.302;2024-01-11T00:06:53;20.93;;;9.70;;
70071;SDS011;57434;42.794;23.302;2024-01-11T00:07:55;26.08;;;10.55;;
70071;SDS011;57434;42.794;23.302;2024-01-11T00:08:57;23.42;;;8.82;;
70071;SDS011;57434;42.794;23.302;2024-01-11T00:09:58;24.25;;;9.18;;
70071;SDS011;57434;42.794;23.302;2024-01-11T00:11:01;26.48;;;10.00;;
70071;SDS011;57434;42.794;23.302;2024-01-11T00:12:03;24.83;;;10.10;;
70071;SDS011;57434;42.794;23.302;2024-01-11T00:13:04;25.63;;;10.55;;
70071;SDS011;57434;42.794;23.302;2024-01-11T00:14:06;23.73;;;9.85;;
70071;SDS011;57434;42.794;23.302;2024-01-11T00:15:08;27.60;;;9.10;;
70071;SDS011;57434;42.794;23.302;2024-01-11T00:16:10;17.50;;;8.25;;
70071;SDS011;57434;42.794;23.302;2024-01-11T00:17:11;25.20;;;9.27;;
70071;SDS011;57434;42.794;23.302;2024-01-11T00:18:13;21.83;;;8.57;;
70071;SDS011;57434;42.794;23.302;2024-01-11T00:19:14;27.50;;;9.70;;
70071;SDS011;57434;42.794;23.302;2024-01-11T00:20:16;19.60;;;8.35;;
70071;SDS011;57434;42.794;23.302;2024-01-11T00:21:18;21.83;;;8.30;;
70071;SDS011;57434;42.794;23.302;2024-01-11T00:22:19;19.60;;;8.63;;
70071;SDS011;57434;42.794;23.302;2024-01-11T00:23:21;19.92;;;6.95;;
70071;SDS011;57434;42.794;23.302;2024-01-11T00:24:22;18.15;;;7.45;;
70071;SDS011;57434;42.794;23.302;2024-01-11T00:25:24;13.35;;;6.47;;
70071;SDS011;57434;42.794;23.302;2024-01-11T00:26:26;18.92;;;7.22;;
70071;SDS011;57434;42.794;23.302;2024-01-11T00:27:27;17.10;;;7.43;;
70071;SDS011;57434;42.794;23.302;2024-01-11T00:28:29;20.38;;;6.90;;
70071;SDS011;57434;42.794;23.302;2024-01-11T00:29:30;17.77;;;7.63;;
70071;SDS011;57434;42.794;23.302;2024-01-11T00:30:32;20.45;;;7.22;;
70071;SDS011;57434;42.794;23.302;2024-01-11T00:31:34;20.70;;;7.28;;
70071;SDS011;57434;42.794;23.302;2024-01-11T00:32:35;19.80;;;6.78;;
70071;SDS011;57434;42.794;23.302;2024-01-11T00:33:39;16.15;;;7.03;;
70071;SDS011;57434;42.794;23.302;2024-01-11T00:34:40;17.67;;;6.50;;
70071;SDS011;57434;42.794;23.302;2024-01-11T00:35:42;16.92;;;6.30;;
70071;SDS011;57434;42.794;23.302;2024-01-11T00:36:44;17.70;;;7.22;;
70071;SDS011;57434;42.794;23.302;2024-01-11T00:37:45;20.17;;;7.23;;
70071;SDS011;57434;42.794;23.302;2024-01-11T00:38:47;22.73;;;7.72;;
70071;SDS011;57434;42.794;23.302;2024-01-11T00:39:49;20.65;;;7.47;;
70071;SDS011;57434;42.794;23.302;2024-01-11T00:40:50;20.40;;;8.43;;
70071;SDS011;57434;42.794;23.302;2024-01-11T00:41:52;21.48;;;7.40;;
70071;SDS011;57434;42.794;23.302;2024-01-11T00:42:53;25.08;;;9.88;;
70071;SDS011;57434;42.794;23.302;2024-01-11T00:43:55;19.48;;;7.70;;
70071;SDS011;57434;42.794;23.302;2024-01-11T00:44:56;19.77;;;7.15;;
70071;SDS011;57434;42.794;23.302;2024-01-11T00:45:58;20.73;;;8.52;;
70071;SDS011;57434;42.794;23.302;2024-01-11T00:47:00;19.38;;;8.07;;
70071;SDS011;57434;42.794;23.302;2024-01-11T00:48:01;15.33;;;6.33;;
70071;SDS011;57434;42.794;23.302;2024-01-11T00:49:03;17.30;;;6.03;;
70071;SDS011;57434;42.794;23.302;2024-01-11T00:50:05;18.65;;;7.40;;
70071;SDS011;57434;42.794;23.302;2024-01-11T00:51:07;18.70;;;7.40;;
70071;SDS011;57434;42.794;23.302;2024-01-11T00:52:08;20.17;;;7.95;;
70071;SDS011;57434;42.794;23.302;2024-01-11T00:53:10;13.63;;;5.93;;
70071;SDS011;57434;42.794;23.302;2024-01-11T00:54:11;14.43;;;7.15;;
70071;SDS011;57434;42.794;23.302;2024-01-11T00:55:13;21.02;;;7.95;;
70071;SDS011;57434;42.794;23.302;2024-01-11T00:56:17;24.15;;;7.80;;
70071;SDS011;57434;42.794;23.302;2024-01-11T00:57:19;16.85;;;6.97;;
70071;SDS011;57434;42.794;23.302;2024-01-11T00:58:23;12.37;;;5.50;;
70071;SDS011;57434;42.794;23.302;2024-01-11T00:59:24;19.25;;;6.03;;
70071;SDS011;57434;42.794;23.302;2024-01-11T01:00:26;19.92;;;8.55;;
70071;SDS011;57434;42.794;23.302;2024-01-11T01:01:27;19.75;;;8.30;;
70071;SDS011;57434;42.794;23.302;2024-01-11T01:02:29;22.75;;;8.30;;
70071;SDS011;57434;42.794;23.302;2024-01-11T01:03:31;21.67;;;7.65;;
70071;SDS011;57434;42.794;23.302;2024-01-11T01:04:32;21.35;;;7.60;;
70071;SDS011;57434;42.794;23.302;2024-01-11T01:05:34;19.85;;;7.70;;
70071;SDS011;57434;42.794;23.302;2024-01-11T01:06:36;16.63;;;7.13;;
70071;SDS011;57434;42.794;23.302;2024-01-11T01:07:37;18.83;;;7.63;;
70071;SDS011;57434;42.794;23.302;2024-01-11T01:08:39;19.60;;;6.57;;
70071;SDS011;57434;42.794;23.302;2024-01-11T01:09:40;19.08;;;8.18;;
70071;SDS011;57434;42.794;23.302;2024-01-11T01:10:42;16.58;;;7.35;;
70071;SDS011;57434;42.794;23.302;2024-01-11T01:11:43;15.88;;;6.78;;
70071;SDS011;57434;42.794;23.302;2024-01-11T01:12:45;20.23;;;8.38;;
70071;SDS011;57434;42.794;23.302;2024-01-11T01:13:47;20.42;;;8.60;;
70071;SDS011;57434;42.794;23.302;2024-01-11T01:14:48;17.13;;;7.93;;
70071;SDS011;57434;42.794;23.302;2024-01-11T01:15:50;22.00;;;9.13;;
70071;SDS011;57434;42.794;23.302;2024-01-11T01:16:51;20.77;;;8.40;;
70071;SDS011;57434;42.794;23.302;2024-01-11T01:17:53;20.38;;;9.27;;
70071;SDS011;57434;42.794;23.302;2024-01-11T01:18:55;28.37;;;9.83;;
70071;SDS011;57434;42.794;23.302;2024-01-11T01:19:56;26.30;;;8.73;;
70071;SDS011;57434;42.794;23.302;2024-01-11T01:20:58;20.42;;;8.80;;
70071;SDS011;57434;42.794;23.302;2024-01-11T01:22:00;20.38;;;7.80;;
70071;SDS011;57434;42.794;23.302;2024-01-11T01:23:01;20.40;;;8.65;;
70071;SDS011;57434;42.794;23.302;2024-01-11T01:24:03;19.02;;;7.90;;
70071;SDS011;57434;42.794;23.302;2024-01-11T01:25:05;22.13;;;9.73;;
70071;SDS011;57434;42.794;23.302;2024-01-11T01:26:07;22.02;;;8.68;;
70071;SDS011;57434;42.794;23.302;2024-01-11T01:27:08;30.50;;;10.73;;
70071;SDS011;57434;42.794;23.302;2024-01-11T01:28:10;29.42;;;11.75;;
70071;SDS011;57434;42.794;23.302;2024-01-11T01:29:11;33.37;;;12.07;;
70071;SDS011;57434;42.794;23.302;2024-01-11T01:30:13;21.13;;;9.93;;
70071;SDS011;57434;42.794;23.302;2024-01-11T01:31:14;24.60;;;10.98;;
70071;SDS011;57434;42.794;23.302;2024-01-11T01:32:16;18.92;;;11.13;;
70071;SDS011;57434;42.794;23.302;2024-01-11T01:33:18;27.02;;;9.90;;
70071;SDS011;57434;42.794;23.302;2024-01-11T01:34:20;31.38;;;11.02;;
70071;SDS011;57434;42.794;23.302;2024-01-11T01:35:21;27.35;;;12.30;;
70071;SDS011;57434;42.794;23.302;2024-01-11T01:36:23;78.13;;;22.33;;
70071;SDS011;57434;42.794;23.302;2024-01-11T01:37:25;65.75;;;22.60;;
70071;SDS011;57434;42.794;23.302;2024-01-11T01:38:26;55.53;;;16.77;;
70071;SDS011;57434;42.794;23.302;2024-01-11T01:39:28;49.73;;;17.03;;
70071;SDS011;57434;42.794;23.302;2024-01-11T01:40:30;57.78;;;19.00;;
70071;SDS011;57434;42.794;23.302;2024-01-11T01:41:31;45.63;;;17.02;;
70071;SDS011;57434;42.794;23.302;2024-01-11T01:42:33;54.13;;;18.83;;
70071;SDS011;57434;42.794;23.302;2024-01-11T01:43:35;48.20;;;14.70;;
70071;SDS011;57434;42.794;23.302;2024-01-11T01:44:36;46.80;;;14.50;;
70071;SDS011;57434;42.794;23.302;2024-01-11T01:45:38;52.88;;;19.10;;
70071;SDS011;57434;42.794;23.302;2024-01-11T01:46:40;55.28;;;20.98;;
70071;SDS011;57434;42.794;23.302;2024-01-11T01:47:42;58.60;;;18.73;;
70071;SDS011;57434;42.794;23.302;2024-01-11T01:48:44;62.63;;;20.77;;
70071;SDS011;57434;42.794;23.302;2024-01-11T01:49:45;59.83;;;20.87;;
70071;SDS011;57434;42.794;23.302;2024-01-11T01:50:49;78.60;;;21.00;;
70071;SDS011;57434;42.794;23.302;2024-01-11T01:51:51;50.63;;;18.50;;
70071;SDS011;57434;42.794;23.302;2024-01-11T01:52:53;59.20;;;19.35;;
70071;SDS011;57434;42.794;23.302;2024-01-11T01:53:56;50.50;;;17.85;;
70071;SDS011;57434;42.794;23.302;2024-01-11T01:54:58;44.75;;;17.50;;
70071;SDS011;57434;42.794;23.302;2024-01-11T01:56:00;59.53;;;19.05;;
70071;SDS011;57434;42.794;23.302;2024-01-11T01:57:01;44.22;;;17.58;;
70071;SDS011;57434;42.794;23.302;2024-01-11T01:58:04;53.72;;;18.35;;
70071;SDS011;57434;42.794;23.302;2024-01-11T01:59:05;36.00;;;15.05;;
70071;SDS011;57434;42.794;23.302;2024-01-11T02:00:08;48.87;;;17.90;;
70071;SDS011;57434;42.794;23.302;2024-01-11T02:01:11;53.00;;;18.17;;
70071;SDS011;57434;42.794;23.302;2024-01-11T02:02:14;39.63;;;16.75;;
70071;SDS011;57434;42.794;23.302;2024-01-11T02:03:15;35.75;;;15.52;;
70071;SDS011;57434;42.794;23.302;2024-01-11T02:04:17;30.52;;;12.65;;
70071;SDS011;57434;42.794;23.302;2024-01-11T02:05:38;39.45;;;12.43;;
70071;SDS011;57434;42.794;23.302;2024-01-11T02:06:40;26.45;;;10.63;;
70071;SDS011;57434;42.794;23.302;2024-01-11T02:07:42;21.92;;;9.35;;
70071;SDS011;57434;42.794;23.302;2024-01-11T02:08:43;17.75;;;7.65;;
70071;SDS011;57434;42.794;23.302;2024-01-11T02:09:45;17.27;;;5.47;;
70071;SDS011;57434;42.794;23.302;2024-01-11T02:10:47;24.47;;;6.53;;
70071;SDS011;57434;42.794;23.302;2024-01-11T02:11:50;13.32;;;5.55;;
70071;SDS011;57434;42.794;23.302;2024-01-11T02:12:52;14.50;;;5.60;;
70071;SDS011;57434;42.794;23.302;2024-01-11T02:13:55;14.00;;;4.95;;
70071;SDS011;57434;42.794;23.302;2024-01-11T02:14:56;12.80;;;4.97;;
70071;SDS011;57434;42.794;23.302;2024-01-11T02:15:58;16.48;;;6.28;;
70071;SDS011;57434;42.794;23.302;2024-01-11T02:16:59;11.90;;;5.80;;
70071;SDS011;57434;42.794;23.302;2024-01-11T02:18:01;20.88;;;6.50;;
70071;SDS011;57434;42.794;23.302;2024-01-11T02:19:04;15.80;;;6.28;;
70071;SDS011;57434;42.794;23.302;2024-01-11T02:20:06;13.95;;;6.35;;
70071;SDS011;57434;42.794;23.302;2024-01-11T02:21:08;16.93;;;6.73;;
70071;SDS011;57434;42.794;23.302;2024-01-11T02:22:12;12.73;;;5.60;;
70071;SDS011;57434;42.794;23.302;2024-01-11T02:23:17;13.55;;;6.43;;
70071;SDS011;57434;42.794;23.302;2024-01-11T02:24:19;16.25;;;6.45;;
70071;SDS011;57434;42.794;23.302;2024-01-11T02:25:21;20.10;;;6.60;;
70071;SDS011;57434;42.794;23.302;2024-01-11T02:26:22;16.10;;;5.63;;
70071;SDS011;57434;42.794;23.302;2024-01-11T02:27:24;17.70;;;6.22;;
70071;SDS011;57434;42.794;23.302;2024-01-11T02:28:25;12.18;;;4.95;;
70071;SDS011;57434;42.794;23.302;2024-01-11T02:29:28;14.32;;;5.22;;
70071;SDS011;57434;42.794;23.302;2024-01-11T02:30:29;12.10;;;5.88;;
70071;SDS011;57434;42.794;23.302;2024-01-11T02:31:31;10.80;;;5.43;;
70071;SDS011;57434;42.794;23.302;2024-01-11T02:32:33;14.23;;;5.03;;
70071;SDS011;57434;42.794;23.302;2024-01-11T02:33:34;14.55;;;6.80;;
70071;SDS011;57434;42.794;23.302;2024-01-11T02:34:36;20.20;;;7.13;;
70071;SDS011;57434;42.794;23.302;2024-01-11T02:35:38;15.15;;;6.22;;
70071;SDS011;57434;42.794;23.302;2024-01-11T02:36:43;14.27;;;7.28;;
70071;SDS011;57434;42.794;23.302;2024-01-11T02:37:45;21.33;;;7.15;;
70071;SDS011;57434;42.794;23.302;2024-01-11T02:38:47;14.05;;;6.00;;
70071;SDS011;57434;42.794;23.302;2024-01-11T02:39:50;19.52;;;7.55;;
70071;SDS011;57434;42.794;23.302;2024-01-11T02:40:51;17.05;;;7.32;;
70071;SDS011;57434;42.794;23.302;2024-01-11T02:41:55;21.07;;;7.73;;
70071;SDS011;57434;42.794;23.302;2024-01-11T02:42:57;22.80;;;7.35;;
70071;SDS011;57434;42.794;23.302;2024-01-11T02:43:58;13.55;;;5.40;;
70071;SDS011;57434;42.794;23.302;2024-01-11T02:45:04;17.23;;;7.32;;
70071;SDS011;57434;42.794;23.302;2024-01-11T02:46:06;26.73;;;6.75;;
70071;SDS011;57434;42.794;23.302;2024-01-11T02:47:08;20.17;;;7.95;;
70071;SDS011;57434;42.794;23.302;2024-01-11T02:48:09;17.20;;;7.72;;
70071;SDS011;57434;42.794;23.302;2024-01-11T02:49:11;14.68;;;7.30;;
70071;SDS011;57434;42.794;23.302;2024-01-11T02:50:13;18.45;;;6.65;;
70071;SDS011;57434;42.794;23.302;2024-01-11T02:51:15;14.75;;;6.82;;
70071;SDS011;57434;42.794;23.302;2024-01-11T02:52:16;22.13;;;8.57;;
70071;SDS011;57434;42.794;23.302;2024-01-11T02:53:18;22.17;;;8.60;;
70071;SDS011;57434;42.794;23.302;2024-01-11T02:54:19;19.70;;;6.35;;
70071;SDS011;57434;42.794;23.302;2024-01-11T02:55:21;15.55;;;7.22;;
70071;SDS011;57434;42.794;23.302;2024-01-11T02:56:23;22.75;;;6.40;;
70071;SDS011;57434;42.794;23.302;2024-01-11T02:57:24;16.02;;;6.60;;
70071;SDS011;57434;42.794;23.302;2024-01-11T02:58:26;13.13;;;5.97;;
70071;SDS011;57434;42.794;23.302;2024-01-11T02:59:27;17.98;;;6.18;;
70071;SDS011;57434;42.794;23.302;2024-01-11T03:00:29;13.90;;;5.68;;
70071;SDS011;57434;42.794;23.302;2024-01-11T03:01:31;14.25;;;6.13;;
70071;SDS011;57434;42.794;23.302;2024-01-11T03:02:32;17.37;;;7.47;;
70071;SDS011;57434;42.794;23.302;2024-01-11T03:03:34;18.05;;;7.22;;
70071;SDS011;57434;42.794;23.302;2024-01-11T03:04:36;25.00;;;8.07;;
70071;SDS011;57434;42.794;23.302;2024-01-11T03:05:37;19.00;;;7.35;;
70071;SDS011;57434;42.794;23.302;2024-01-11T03:06:39;16.30;;;6.70;;
70071;SDS011;57434;42.794;23.302;2024-01-11T03:07:41;20.98;;;7.55;;
70071;SDS011;57434;42.794;23.302;2024-01-11T03:08:43;15.02;;;7.05;;
70071;SDS011;57434;42.794;23.302;2024-01-11T03:09:44;18.08;;;7.22;;
70071;SDS011;57434;42.794;23.302;2024-01-11T03:10:46;15.88;;;6.20;;
70071;SDS011;57434;42.794;23.302;2024-01-11T03:11:48;15.55;;;5.97;;
70071;SDS011;57434;42.794;23.302;2024-01-11T03:12:49;16.90;;;7.37;;
70071;SDS011;57434;42.794;23.302;2024-01-11T03:13:51;11.75;;;5.68;;
70071;SDS011;57434;42.794;23.302;2024-01-11T03:14:52;18.02;;;5.55;;
70071;SDS011;57434;42.794;23.302;2024-01-11T03:15:54;14.45;;;7.10;;
70071;SDS011;57434;42.794;23.302;2024-01-11T03:16:56;17.42;;;6.82;;
70071;SDS011;57434;42.794;23.302;2024-01-11T03:17:57;19.58;;;5.85;;
70071;SDS011;57434;42.794;23.302;2024-01-11T03:18:59;22.48;;;6.60;;
70071;SDS011;57434;42.794;23.302;2024-01-11T03:20:01;19.17;;;6.80;;
70071;SDS011;57434;42.794;23.302;2024-01-11T03:21:03;17.55;;;7.43;;
70071;SDS011;57434;42.794;23.302;2024-01-11T03:22:04;14.38;;;6.78;;
70071;SDS011;57434;42.794;23.302;2024-01-11T03:23:06;17.00;;;7.10;;
70071;SDS011;57434;42.794;23.302;2024-01-11T03:24:08;16.50;;;6.82;;
70071;SDS011;57434;42.794;23.302;2024-01-11T03:25:09;19.90;;;6.95;;
70071;SDS011;57434;42.794;23.302;2024-01-11T03:26:12;17.15;;;6.20;;
70071;SDS011;57434;42.794;23.302;2024-01-11T03:27:13;18.38;;;7.13;;
70071;SDS011;57434;42.794;23.302;2024-01-11T03:28:15;16.55;;;6.78;;
70071;SDS011;57434;42.794;23.302;2024-01-11T03:29:17;14.63;;;6.65;;
70071;SDS011;57434;42.794;23.302;2024-01-11T03:30:19;18.90;;;6.80;;
70071;SDS011;57434;42.794;23.302;2024-01-11T03:31:20;14.45;;;6.88;;
70071;SDS011;57434;42.794;23.302;2024-01-11T03:32:22;15.85;;;6.55;;
70071;SDS011;57434;42.794;23.302;2024-01-11T03:33:23;14.60;;;7.00;;
70071;SDS011;57434;42.794;23.302;2024-01-11T03:34:26;17.35;;;6.53;;
70071;SDS011;57434;42.794;23.302;2024-01-11T03:35:27;17.45;;;7.28;;
70071;SDS011;57434;42.794;23.302;2024-01-11T03:36:29;28.63;;;10.13;;
70071;SDS011;57434;42.794;23.302;2024-01-11T03:37:31;23.15;;;8.73;;
70071;SDS011;57434;42.794;23.302;2024-01-11T03:38:32;18.52;;;8.52;;
70071;SDS011;57434;42.794;23.302;2024-01-11T03:39:34;22.55;;;9.13;;
70071;SDS011;57434;42.794;23.302;2024-01-11T03:40:36;21.27;;;8.73;;
70071;SDS011;57434;42.794;23.302;2024-01-11T03:41:42;19.45;;;9.52;;
70071;SDS011;57434;42.794;23.302;2024-01-11T03:42:44;18.77;;;8.43;;
70071;SDS011;57434;42.794;23.302;2024-01-11T03:43:45;24.00;;;8.70;;
70071;SDS011;57434;42.794;23.302;2024-01-11T03:44:47;21.33;;;8.57;;
70071;SDS011;57434;42.794;23.302;2024-01-11T03:45:49;20.83;;;9.07;;
70071;SDS011;57434;42.794;23.302;2024-01-11T03:46:50;16.50;;;7.35;;
70071;SDS011;57434;42.794;23.302;2024-01-11T03:47:52;27.33;;;10.25;;
70071;SDS011;57434;42.794;23.302;2024-01-11T03:48:54;23.80;;;8.93;;
70071;SDS011;57434;42.794;23.302;2024-01-11T03:49:56;15.07;;;7.13;;
70071;SDS011;57434;42.794;23.302;2024-01-11T03:50:58;17.90;;;7.47;;
70071;SDS011;57434;42.794;23.302;2024-01-11T03:52:00;17.98;;;6.53;;
70071;SDS011;57434;42.794;23.302;2024-01-11T03:53:01;20.70;;;7.88;;
70071;SDS011;57434;42.794;23.302;2024-01-11T03:54:03;19.73;;;9.13;;
70071;SDS011;57434;42.794;23.302;2024-01-11T03:55:05;16.27;;;6.45;;
70071;SDS011;57434;42.794;23.302;2024-01-11T03:56:07;17.45;;;7.47;;
70071;SDS011;57434;42.794;23.302;2024-01-11T03:57:08;14.00;;;6.70;;
70071;SDS011;57434;42.794;23.302;2024-01-11T03:58:10;19.33;;;6.85;;
70071;SDS011;57434;42.794;23.302;2024-01-11T03:59:11;16.95;;;6.85;;
70071;SDS011;57434;42.794;23.302;2024-01-11T04:00:13;18.63;;;7.18;;
70071;SDS011;57434;42.794;23.302;2024-01-11T04:01:15;18.15;;;5.82;;
70071;SDS011;57434;42.794;23.302;2024-01-11T04:02:17;15.65;;;6.28;;
70071;SDS011;57434;42.794;23.302;2024-01-11T04:03:18;15.80;;;6.93;;
70071;SDS011;57434;42.794;23.302;2024-01-11T04:04:20;16.67;;;6.73;;
70071;SDS011;57434;42.794;23.302;2024-01-11T04:05:22;15.85;;;6.55;;
70071;SDS011;57434;42.794;23.302;2024-01-11T04:06:23;16.67;;;7.22;;
70071;SDS011;57434;42.794;23.302;2024-01-11T04:07:26;14.68;;;6.22;;
70071;SDS011;57434;42.794;23.302;2024-01-11T04:08:27;18.92;;;6.82;;
70071;SDS011;57434;42.794;23.302;2024-01-11T04:09:29;15.27;;;7.53;;
70071;SDS011;57434;42.794;23.302;2024-01-11T04:10:31;22.25;;;7.70;;
70071;SDS011;57434;42.794;23.302;2024-01-11T04:11:33;19.30;;;6.55;;
70071;SDS011;57434;42.794;23.302;2024-01-11T04:12:35;11.18;;;5.80;;
70071;SDS011;57434;42.794;23.302;2024-01-11T04:13:36;17.45;;;6.15;;
70071;SDS011;57434;42.794;23.302;2024-01-11T04:14:38;18.50;;;7.37;;
70071;SDS011;57434;42.794;23.302;2024-01-11T04:15:40;16.58;;;6.10;;
70071;SDS011;57434;42.794;23.302;2024-01-11T04:16:42;18.08;;;6.82;;
70071;SDS011;57434;42.794;23.302;2024-01-11T04:17:44;14.98;;;6.68;;
70071;SDS011;57434;42.794;23.302;2024-01-11T04:18:46;19.67;;;7.25;;
70071;SDS011;57434;42.794;23.302;2024-01-11T04:19:47;13.80;;;6.13;;
70071;SDS011;57434;42.794;23.302;2024-01-11T04:20:49;16.98;;;6.95;;
70071;SDS011;57434;42.794;23.302;2024-01-11T04:21:51;19.63;;;8.05;;
70071;SDS011;57434;42.794;23.302;2024-01-11T04:22:52;14.38;;;6.32;;
70071;SDS011;57434;42.794;23.302;2024-01-11T04:23:54;15.98;;;6.78;;
70071;SDS011;57434;42.794;23.302;2024-01-11T04:24:56;19.30;;;6.77;;
70071;SDS011;57434;42.794;23.302;2024-01-11T04:25:57;17.83;;;6.10;;
70071;SDS011;57434;42.794;23.302;2024-01-11T04:26:59;16.83;;;6.65;;
70071;SDS011;57434;42.794;23.302;2024-01-11T04:28:01;14.95;;;6.55;;
70071;SDS011;57434;42.794;23.302;2024-01-11T04:29:02;16.58;;;7.75;;
70071;SDS011;57434;42.794;23.302;2024-01-11T04:30:04;14.18;;;6.07;;
70071;SDS011;57434;42.794;23.302;2024-01-11T04:31:07;17.20;;;6.80;;
70071;SDS011;57434;42.794;23.302;2024-01-11T04:32:09;15.68;;;6.07;;
70071;SDS011;57434;42.794;23.302;2024-01-11T04:33:11;17.35;;;6.10;;
70071;SDS011;57434;42.794;23.302;2024-01-11T04:34:13;15.05;;;6.53;;
70071;SDS011;57434;42.794;23.302;2024-01-11T04:35:14;15.47;;;5.50;;
70071;SDS011;57434;42.794;23.302;2024-01-11T04:36:16;11.93;;;5.07;;
70071;SDS011;57434;42.794;23.302;2024-01-11T04:37:18;19.80;;;6.60;;
70071;SDS011;57434;42.794;23.302;2024-01-11T04:38:20;15.07;;;5.95;;
70071;SDS011;57434;42.794;23.302;2024-01-11T04:39:22;12.75;;;5.93;;
70071;SDS011;57434;42.794;23.302;2024-01-11T04:40:23;11.55;;;5.25;;
70071;SDS011;57434;42.794;23.302;2024-01-11T04:41:25;12.18;;;4.25;;
70071;SDS011;57434;42.794;23.302;2024-01-11T04:42:27;19.02;;;7.78;;
70071;SDS011;57434;42.794;23.302;2024-01-11T04:43:28;16.55;;;6.68;;
70071;SDS011;57434;42.794;23.302;2024-01-11T04:44:30;17.95;;;6.18;;
70071;SDS011;57434;42.794;23.302;2024-01-11T04:45:32;14.90;;;6.63;;
70071;SDS011;57434;42.794;23.302;2024-01-11T04:46:34;14.82;;;5.50;;
70071;SDS011;57434;42.794;23.302;2024-01-11T04:47:36;16.52;;;6.70;;
70071;SDS011;57434;42.794;23.302;2024-01-11T04:48:37;18.30;;;6.95;;
70071;SDS011;57434;42.794;23.302;2024-01-11T04:49:39;16.88;;;6.78;;
70071;SDS011;57434;42.794;23.302;2024-01-11T04:50:41;17.58;;;6.28;;
70071;SDS011;57434;42.794;23.302;2024-01-11T04:51:42;17.30;;;5.90;;
70071;SDS011;57434;42.794;23.302;2024-01-11T04:52:44;13.93;;;6.45;;
70071;SDS011;57434;42.794;23.302;2024-01-11T04:53:45;17.08;;;7.40;;
70071;SDS011;57434;42.794;23.302;2024-01-11T04:54:47;16.70;;;6.63;;
70071;SDS011;57434;42.794;23.302;2024-01-11T04:55:49;18.77;;;6.50;;
70071;SDS011;57434;42.794;23.302;2024-01-11T04:56:50;20.25;;;7.15;;
70071;SDS011;57434;42.794;23.302;2024-01-11T04:57:52;16.45;;;7.20;;
70071;SDS011;57434;42.794;23.302;2024-01-11T04:58:54;14.43;;;6.38;;
70071;SDS011;57434;42.794;23.302;2024-01-11T04:59:55;19.25;;;7.53;;
70071;SDS011;57434;42.794;23.302;2024-01-11T05:00:59;13.48;;;6.38;;
70071;SDS011;57434;42.794;23.302;2024-01-11T05:02:01;15.93;;;6.95;;
70071;SDS011;57434;42.794;23.302;2024-01-11T05:03:03;15.88;;;6.03;;
70071;SDS011;57434;42.794;23.302;2024-01-11T05:04:06;11.98;;;5.47;;
70071;SDS011;57434;42.794;23.302;2024-01-11T05:05:07;16.15;;;6.05;;
70071;SDS011;57434;42.794;23.302;2024-01-11T05:06:19;18.93;;;6.80;;
70071;SDS011;57434;42.794;23.302;2024-01-11T05:07:20;15.63;;;6.93;;
70071;SDS011;57434;42.794;23.302;2024-01-11T05:08:22;13.73;;;6.50;;
70071;SDS011;57434;42.794;23.302;2024-01-11T05:09:24;20.10;;;5.97;;
70071;SDS011;57434;42.794;23.302;2024-01-11T05:10:25;15.32;;;6.18;;
70071;SDS011;57434;42.794;23.302;2024-01-11T05:11:27;14.95;;;5.68;;
70071;SDS011;57434;42.794;23.302;2024-01-11T05:12:28;15.25;;;5.68;;
70071;SDS011;57434;42.794;23.302;2024-01-11T05:13:30;18.23;;;8.07;;
70071;SDS011;57434;42.794;23.302;2024-01-11T05:14:32;24.92;;;9.50;;
70071;SDS011;57434;42.794;23.302;2024-01-11T05:15:34;29.27;;;9.23;;
70071;SDS011;57434;42.794;23.302;2024-01-11T05:16:35;23.13;;;8.23;;
70071;SDS011;57434;42.794;23.302;2024-01-11T05:17:37;23.38;;;10.85;;
70071;SDS011;57434;42.794;23.302;2024-01-11T05:18:39;23.30;;;9.10;;
70071;SDS011;57434;42.794;23.302;2024-01-11T05:19:41;16.40;;;7.53;;
70071;SDS011;57434;42.794;23.302;2024-01-11T05:20:42;23.02;;;9.35;;
70071;SDS011;57434;42.794;23.302;2024-01-11T05:21:44;25.55;;;9.98;;
70071;SDS011;57434;42.794;23.302;2024-01-11T05:22:46;24.02;;;9.23;;
70071;SDS011;57434;42.794;23.302;2024-01-11T05:23:47;23.23;;;9.23;;
70071;SDS011;57434;42.794;23.302;2024-01-11T05:24:49;22.25;;;7.75;;
70071;SDS011;57434;42.794;23.302;2024-01-11T05:25:51;20.20;;;8.18;;
70071;SDS011;57434;42.794;23.302;2024-01-11T05:26:52;23.90;;;8.60;;
70071;SDS011;57434;42.794;23.302;2024-01-11T05:27:54;19.55;;;7.75;;
70071;SDS011;57434;42.794;23.302;2024-01-11T05:28:56;16.73;;;7.18;;
70071;SDS011;57434;42.794;23.302;2024-01-11T05:29:57;19.30;;;6.55;;
70071;SDS011;57434;42.794;23.302;2024-01-11T05:30:59;16.27;;;6.60;;
70071;SDS011;57434;42.794;23.302;2024-01-11T05:32:01;14.73;;;6.50;;
70071;SDS011;57434;42.794;23.302;2024-01-11T05:33:03;13.55;;;5.80;;
70071;SDS011;57434;42.794;23.302;2024-01-11T06:16:27;18.25;;;6.57;;
70071;SDS011;57434;42.794;23.302;2024-01-11T06:17:29;16.90;;;5.55;;
70071;SDS011;57434;42.794;23.302;2024-01-11T06:18:30;13.18;;;5.72;;
70071;SDS011;57434;42.794;23.302;2024-01-11T06:19:32;15.63;;;5.82;;
70071;SDS011;57434;42.794;23.302;2024-01-11T06:20:34;13.68;;;6.57;;
70071;SDS011;57434;42.794;23.302;2024-01-11T06:21:36;16.40;;;6.13;;
70071;SDS011;57434;42.794;23.302;2024-01-11T06:22:37;13.32;;;5.97;;
70071;SDS011;57434;42.794;23.302;2024-01-11T06:23:40;13.00;;;5.83;;
70071;SDS011;57434;42.794;23.302;2024-01-11T06:24:42;15.70;;;6.97;;
70071;SDS011;57434;42.794;23.302;2024-01-11T06:25:44;13.52;;;5.65;;
70071;SDS011;57434;42.794;23.302;2024-01-11T06:26:45;11.35;;;6.28;;
70071;SDS011;57434;42.794;23.302;2024-01-11T06:27:47;15.35;;;6.15;;
70071;SDS011;57434;42.794;23.302;2024-01-11T06:28:49;18.60;;;6.72;;
70071;SDS011;57434;42.794;23.302;2024-01-11T06:29:50;15.75;;;6.30;;
70071;SDS011;57434;42.794;23.302;2024-01-11T06:30:52;15.35;;;6.38;;
70071;SDS011;57434;42.794;23.302;2024-01-11T06:31:54;13.13;;;6.28;;
70071;SDS011;57434;42.794;23.302;2024-01-11T06:32:55;10.77;;;5.00;;
70071;SDS011;57434;42.794;23.302;2024-01-11T06:33:57;14.07;;;7.13;;
70071;SDS011;57434;42.794;23.302;2024-01-11T06:34:59;15.23;;;6.25;;
70071;SDS011;57434;42.794;23.302;2024-01-11T06:36:00;15.85;;;7.00;;
70071;SDS011;57434;42.794;23.302;2024-01-11T06:37:02;17.83;;;7.00;;
70071;SDS011;57434;42.794;23.302;2024-01-11T06:38:04;16.20;;;6.28;;
70071;SDS011;57434;42.794;23.302;2024-01-11T06:39:05;16.80;;;6.82;;
70071;SDS011;57434;42.794;23.302;2024-01-11T06:40:07;19.00;;;7.28;;
70071;SDS011;57434;42.794;23.302;2024-01-11T06:41:09;17.90;;;7.10;;
70071;SDS011;57434;42.794;23.302;2024-01-11T06:42:10;14.77;;;6.90;;
70071;SDS011;57434;42.794;23.302;2024-01-11T06:43:12;15.75;;;6.63;;
70071;SDS011;57434;42.794;23.302;2024-01-11T06:44:13;15.57;;;8.53;;